createdAt,value
2023-04-29T00:00:03.796Z,962.33
2023-04-29T00:01:03.749Z,962.26
2023-04-29T00:02:03.725Z,962.25
2023-04-29T00:03:03.793Z,962.27
2023-04-29T00:04:03.759Z,962.22
2023-04-29T00:05:03.880Z,962.22
2023-04-29T00:06:03.786Z,962.24
2023-04-29T00:07:03.550Z,962.23
2023-04-29T00:08:03.442Z,962.26
2023-04-29T00:09:03.398Z,962.32
2023-04-29T00:10:03.368Z,962.31
2023-04-29T00:11:03.318Z,962.29
2023-04-29T00:12:04.292Z,962.27
2023-04-29T00:13:03.251Z,962.25
2023-04-29T00:14:03.187Z,962.27
2023-04-29T00:15:03.289Z,962.26
2023-04-29T00:16:03.108Z,962.29
2023-04-29T00:17:03.079Z,962.29
2023-04-29T00:18:03.071Z,962.40
2023-04-29T00:19:02.998Z,962.35
2023-04-29T00:20:02.931Z,962.36
2023-04-29T00:21:02.888Z,962.30
2023-04-29T00:22:02.841Z,962.32
2023-04-29T00:23:02.808Z,962.31
2023-04-29T00:24:02.770Z,962.32
2023-04-29T00:25:02.723Z,962.33
2023-04-29T00:26:02.706Z,962.33
2023-04-29T00:27:02.624Z,962.31
2023-04-29T00:28:02.583Z,962.31
2023-04-29T00:29:02.538Z,962.27
2023-04-29T00:30:02.491Z,962.25
2023-04-29T00:31:02.555Z,962.28
2023-04-29T00:32:02.429Z,962.25
2023-04-29T00:33:02.527Z,962.22
2023-04-29T00:34:02.327Z,962.21
2023-04-29T00:35:02.314Z,962.19
2023-04-29T00:36:02.300Z,962.17
2023-04-29T00:37:02.200Z,962.17
2023-04-29T00:38:02.160Z,962.15
2023-04-29T00:39:02.106Z,962.15
2023-04-29T00:40:02.087Z,962.13
2023-04-29T00:41:02.048Z,962.17
2023-04-29T00:42:01.994Z,962.09
2023-04-29T00:43:01.935Z,962.13
2023-04-29T00:44:02.221Z,962.08
2023-04-29T00:45:01.855Z,962.14
2023-04-29T00:46:01.833Z,962.17
2023-04-29T00:47:01.772Z,962.15
2023-04-29T00:48:01.853Z,962.16
2023-04-29T00:49:01.678Z,962.13
2023-04-29T00:50:01.849Z,962.13
2023-04-29T00:51:01.596Z,962.17
2023-04-29T00:52:01.560Z,962.16
2023-04-29T00:53:01.527Z,962.15
2023-04-29T00:54:01.469Z,962.21
2023-04-29T00:55:01.460Z,962.10
2023-04-29T00:56:01.392Z,962.10
2023-04-29T00:57:01.338Z,962.11
2023-04-29T00:58:01.296Z,962.13
2023-04-29T00:59:01.268Z,962.12
2023-04-29T01:00:01.334Z,962.11
2023-04-29T01:01:01.170Z,962.14
2023-04-29T01:02:01.215Z,962.13
2023-04-29T01:03:01.138Z,962.11
2023-04-29T01:04:01.182Z,962.11
2023-04-29T01:05:01.029Z,962.09
2023-04-29T01:06:01.225Z,962.10
2023-04-29T01:07:00.909Z,962.09
2023-04-29T01:08:00.874Z,962.12
2023-04-29T01:09:00.854Z,962.13
2023-04-29T01:10:00.787Z,962.06
2023-04-29T01:11:00.745Z,962.08
2023-04-29T01:12:00.712Z,962.06
2023-04-29T01:13:00.683Z,962.05
2023-04-29T01:14:00.615Z,962.04
2023-04-29T01:15:00.569Z,962.03
2023-04-29T01:16:00.547Z,962.03
2023-04-29T01:17:00.492Z,962.04
2023-04-29T01:18:00.781Z,962.02
2023-04-29T01:19:00.401Z,962.03
2023-04-29T01:20:00.357Z,962.03
2023-04-29T01:21:00.337Z,962.06
2023-04-29T01:22:00.276Z,962.04
2023-04-29T01:23:00.231Z,962.02
2023-04-29T01:24:00.216Z,962.07
2023-04-29T01:25:00.171Z,962.06
2023-04-29T01:26:00.168Z,962.08
2023-04-29T01:27:00.056Z,962.10
2023-04-29T01:28:00.041Z,962.10
2023-04-29T01:28:59.976Z,962.10
2023-04-29T01:29:59.952Z,962.13
2023-04-29T01:30:59.915Z,962.10
2023-04-29T01:31:59.859Z,962.07
2023-04-29T01:32:59.828Z,962.10
2023-04-29T01:33:59.763Z,962.17
2023-04-29T01:34:59.765Z,962.08
2023-04-29T01:35:59.686Z,962.11
2023-04-29T01:36:59.633Z,962.08
2023-04-29T01:37:59.627Z,962.07
2023-04-29T01:38:59.548Z,962.06
2023-04-29T01:39:59.507Z,962.05
2023-04-29T01:40:59.460Z,962.05
2023-04-29T01:41:59.423Z,962.07
2023-04-29T01:42:59.449Z,962.08
2023-04-29T01:43:59.331Z,962.06
2023-04-29T01:44:59.290Z,962.05
2023-04-29T01:45:59.247Z,962.05
2023-04-29T01:46:59.364Z,962.05
2023-04-29T01:47:59.206Z,962.05
2023-04-29T01:48:59.151Z,962.05
2023-04-29T01:49:59.083Z,962.09
2023-04-29T01:50:59.031Z,962.03
2023-04-29T01:51:58.990Z,962.05
2023-04-29T01:52:58.954Z,962.05
2023-04-29T01:53:58.948Z,962.09
2023-04-29T01:54:58.860Z,962.11
2023-04-29T01:55:58.824Z,962.13
2023-04-29T01:56:58.785Z,962.11
2023-04-29T01:57:58.772Z,962.10
2023-04-29T01:58:58.702Z,962.08
2023-04-29T01:59:58.653Z,962.10
2023-04-29T02:00:58.702Z,962.08
2023-04-29T02:01:58.613Z,962.10
2023-04-29T02:02:58.590Z,962.08
2023-04-29T02:03:58.606Z,962.06
2023-04-29T02:04:58.501Z,962.08
2023-04-29T02:05:58.401Z,962.02
2023-04-29T02:06:58.372Z,962.04
2023-04-29T02:07:58.306Z,961.98
2023-04-29T02:08:58.263Z,962.01
2023-04-29T02:09:58.262Z,962.04
2023-04-29T02:10:58.216Z,962.01
2023-04-29T02:11:58.138Z,961.99
2023-04-29T02:12:58.096Z,962.01
2023-04-29T02:13:58.058Z,962.01
2023-04-29T02:14:58.034Z,962.00
2023-04-29T02:15:57.991Z,961.99
2023-04-29T02:16:57.927Z,962.04
2023-04-29T02:17:57.900Z,961.98
2023-04-29T02:18:57.841Z,962.03
2023-04-29T02:19:57.802Z,962.02
2023-04-29T02:20:57.772Z,962.03
2023-04-29T02:21:57.717Z,962.00
2023-04-29T02:22:57.675Z,961.99
2023-04-29T02:23:57.630Z,962.01
2023-04-29T02:24:57.589Z,962.04
2023-04-29T02:25:57.545Z,962.04
2023-04-29T02:26:57.523Z,962.05
2023-04-29T02:27:57.466Z,962.06
2023-04-29T02:28:57.493Z,962.08
2023-04-29T02:29:57.768Z,962.09
2023-04-29T02:30:57.344Z,962.06
2023-04-29T02:31:57.327Z,962.08
2023-04-29T02:32:57.301Z,962.08
2023-04-29T02:33:57.228Z,962.09
2023-04-29T02:34:57.177Z,962.10
2023-04-29T02:35:57.137Z,962.10
2023-04-29T02:36:57.083Z,962.12
2023-04-29T02:37:57.040Z,962.13
2023-04-29T02:38:56.988Z,962.13
2023-04-29T02:39:56.951Z,962.15
2023-04-29T02:40:56.914Z,962.14
2023-04-29T02:41:56.890Z,962.14
2023-04-29T02:42:56.819Z,962.16
2023-04-29T02:43:56.789Z,962.15
2023-04-29T02:44:56.743Z,962.21
2023-04-29T02:45:56.728Z,962.20
2023-04-29T02:46:56.696Z,962.22
2023-04-29T02:47:56.706Z,962.17
2023-04-29T02:48:56.569Z,962.20
2023-04-29T02:49:56.528Z,962.17
2023-04-29T02:50:56.522Z,962.15
2023-04-29T02:51:56.443Z,962.14
2023-04-29T02:52:56.399Z,962.18
2023-04-29T02:53:56.361Z,962.14
2023-04-29T02:54:56.321Z,962.10
2023-04-29T02:55:56.298Z,962.11
2023-04-29T02:56:56.249Z,962.12
2023-04-29T02:57:56.209Z,962.12
2023-04-29T02:58:56.141Z,962.17
2023-04-29T02:59:56.102Z,962.18
2023-04-29T03:00:56.112Z,962.16
2023-04-29T03:01:56.022Z,962.13
2023-04-29T03:02:56.115Z,962.13
2023-04-29T03:03:56.246Z,962.08
2023-04-29T03:04:55.912Z,962.06
2023-04-29T03:05:55.850Z,962.09
2023-04-29T03:06:55.808Z,962.08
2023-04-29T03:07:55.762Z,962.11
2023-04-29T03:08:55.720Z,962.11
2023-04-29T03:09:55.714Z,962.10
2023-04-29T03:10:55.631Z,962.05
2023-04-29T03:11:55.593Z,962.02
2023-04-29T03:12:55.602Z,962.01
2023-04-29T03:13:55.504Z,962.03
2023-04-29T03:14:55.471Z,962.01
2023-04-29T03:15:55.427Z,962.02
2023-04-29T03:16:55.457Z,961.97
2023-04-29T03:17:55.462Z,961.98
2023-04-29T03:18:55.290Z,962.00
2023-04-29T03:19:55.300Z,961.97
2023-04-29T03:20:55.205Z,962.00
2023-04-29T03:21:55.168Z,962.03
2023-04-29T03:22:55.120Z,961.99
2023-04-29T03:23:55.133Z,962.01
2023-04-29T03:24:55.029Z,961.98
2023-04-29T03:25:54.996Z,961.95
2023-04-29T03:26:54.939Z,961.94
2023-04-29T03:27:54.903Z,961.95
2023-04-29T03:28:54.859Z,961.94
2023-04-29T03:29:55.061Z,961.92
2023-04-29T03:30:54.803Z,961.92
2023-04-29T03:31:54.732Z,961.94
2023-04-29T03:32:54.732Z,961.97
2023-04-29T03:33:54.664Z,961.89
2023-04-29T03:34:54.635Z,961.89
2023-04-29T03:35:54.563Z,961.88
2023-04-29T03:36:54.537Z,961.87
2023-04-29T03:37:54.474Z,961.87
2023-04-29T03:38:54.433Z,961.87
2023-04-29T03:39:54.666Z,961.90
2023-04-29T03:40:54.367Z,961.91
2023-04-29T03:41:54.303Z,961.91
2023-04-29T03:42:54.290Z,961.91
2023-04-29T03:43:54.244Z,961.92
2023-04-29T03:44:54.176Z,961.90
2023-04-29T03:45:54.203Z,961.87
2023-04-29T03:46:54.087Z,961.87
2023-04-29T03:47:54.133Z,961.88
2023-04-29T03:48:54.023Z,961.93
2023-04-29T03:49:54.276Z,961.84
2023-04-29T03:50:53.928Z,961.80
2023-04-29T03:51:53.876Z,961.86
2023-04-29T03:52:53.831Z,961.83
2023-04-29T03:53:53.793Z,961.84
2023-04-29T03:54:53.757Z,961.85
2023-04-29T03:55:53.698Z,961.83
2023-04-29T03:56:54.680Z,961.85
2023-04-29T03:57:53.614Z,961.87
2023-04-29T03:58:53.573Z,961.84
2023-04-29T03:59:53.843Z,961.83
2023-04-29T04:00:53.508Z,961.85
2023-04-29T04:01:53.493Z,961.88
2023-04-29T04:02:53.550Z,961.88
2023-04-29T04:03:53.529Z,961.89
2023-04-29T04:04:53.451Z,961.91
2023-04-29T04:05:53.271Z,961.95
2023-04-29T04:06:53.250Z,961.92
2023-04-29T04:07:53.192Z,961.93
2023-04-29T04:08:53.145Z,961.95
2023-04-29T04:09:53.408Z,961.94
2023-04-29T04:10:53.068Z,961.92
2023-04-29T04:11:53.017Z,961.95
2023-04-29T04:12:53.004Z,961.92
2023-04-29T04:13:52.938Z,961.92
2023-04-29T04:14:52.893Z,961.94
2023-04-29T04:15:52.863Z,961.97
2023-04-29T04:16:52.803Z,961.99
2023-04-29T04:17:52.786Z,962.00
2023-04-29T04:18:52.751Z,962.02
2023-04-29T04:19:52.885Z,962.01
2023-04-29T04:20:52.636Z,962.01
2023-04-29T04:21:52.588Z,962.02
2023-04-29T04:22:52.540Z,962.05
2023-04-29T04:23:52.553Z,962.06
2023-04-29T04:24:52.461Z,962.09
2023-04-29T04:25:52.422Z,962.09
2023-04-29T04:26:52.373Z,962.08
2023-04-29T04:27:52.336Z,962.11
2023-04-29T04:28:52.328Z,962.12
2023-04-29T04:29:52.450Z,962.15
2023-04-29T04:30:52.205Z,962.15
2023-04-29T04:31:52.211Z,962.20
2023-04-29T04:32:52.253Z,962.23
2023-04-29T04:33:52.114Z,962.24
2023-04-29T04:34:52.036Z,962.26
2023-04-29T04:35:51.997Z,962.28
2023-04-29T04:36:51.952Z,962.29
2023-04-29T04:37:51.910Z,962.32
2023-04-29T04:38:51.904Z,962.31
2023-04-29T04:39:52.031Z,962.30
2023-04-29T04:40:51.786Z,962.31
2023-04-29T04:41:51.741Z,962.35
2023-04-29T04:42:53.068Z,962.38
2023-04-29T04:43:51.656Z,962.39
2023-04-29T04:44:51.621Z,962.38
2023-04-29T04:45:51.644Z,962.40
2023-04-29T04:46:51.528Z,962.39
2023-04-29T04:47:51.517Z,962.38
2023-04-29T04:48:51.442Z,962.38
2023-04-29T04:49:51.646Z,962.42
2023-04-29T04:50:51.353Z,962.40
2023-04-29T04:51:51.330Z,962.42
2023-04-29T04:52:51.283Z,962.41
2023-04-29T04:53:51.234Z,962.40
2023-04-29T04:54:51.199Z,962.42
2023-04-29T04:55:51.277Z,962.41
2023-04-29T04:56:51.109Z,962.39
2023-04-29T04:57:51.069Z,962.41
2023-04-29T04:58:51.025Z,962.40
2023-04-29T04:59:51.061Z,962.40
2023-04-29T05:00:50.966Z,962.41
2023-04-29T05:01:50.919Z,962.44
2023-04-29T05:02:51.008Z,962.46
2023-04-29T05:03:50.913Z,962.46
2023-04-29T05:04:50.764Z,962.51
2023-04-29T05:05:50.727Z,962.48
2023-04-29T05:06:50.684Z,962.46
2023-04-29T05:07:50.651Z,962.48
2023-04-29T05:08:50.606Z,962.48
2023-04-29T05:09:50.769Z,962.50
2023-04-29T05:10:50.513Z,962.49
2023-04-29T05:11:50.467Z,962.48
2023-04-29T05:12:50.453Z,962.48
2023-04-29T05:13:50.394Z,962.48
2023-04-29T05:14:50.346Z,962.46
2023-04-29T05:15:50.300Z,962.48
2023-04-29T05:16:50.288Z,962.47
2023-04-29T05:17:50.284Z,962.49
2023-04-29T05:18:50.188Z,962.48
2023-04-29T05:19:50.219Z,962.49
2023-04-29T05:20:50.091Z,962.52
2023-04-29T05:21:50.050Z,962.57
2023-04-29T05:22:50.004Z,962.56
2023-04-29T05:23:49.981Z,962.60
2023-04-29T05:24:49.940Z,962.58
2023-04-29T05:25:49.877Z,962.62
2023-04-29T05:26:49.841Z,962.65
2023-04-29T05:27:49.795Z,962.65
2023-04-29T05:28:49.752Z,962.69
2023-04-29T05:29:49.727Z,962.69
2023-04-29T05:30:49.698Z,962.65
2023-04-29T05:31:49.628Z,962.63
2023-04-29T05:32:49.612Z,962.63
2023-04-29T05:33:49.540Z,962.66
2023-04-29T05:34:49.506Z,962.69
2023-04-29T05:35:49.459Z,962.72
2023-04-29T05:36:49.427Z,962.73
2023-04-29T05:37:49.379Z,962.70
2023-04-29T05:38:49.331Z,962.75
2023-04-29T05:39:49.293Z,962.75
2023-04-29T05:40:49.250Z,962.74
2023-04-29T05:41:49.208Z,962.75
2023-04-29T05:42:49.297Z,962.79
2023-04-29T05:43:49.158Z,962.77
2023-04-29T05:44:49.093Z,962.74
2023-04-29T05:45:49.053Z,962.77
2023-04-29T05:46:49.050Z,962.77
2023-04-29T05:47:49.016Z,962.78
2023-04-29T05:48:48.916Z,962.81
2023-04-29T05:49:48.880Z,962.80
2023-04-29T05:50:48.835Z,962.83
2023-04-29T05:51:48.789Z,962.82
2023-04-29T05:52:48.803Z,962.80
2023-04-29T05:53:48.708Z,962.84
2023-04-29T05:54:48.680Z,962.85
2023-04-29T05:55:49.745Z,962.83
2023-04-29T05:56:48.586Z,962.86
2023-04-29T05:57:48.542Z,962.81
2023-04-29T05:58:48.534Z,962.80
2023-04-29T05:59:48.486Z,962.80
2023-04-29T06:03:47.922Z,962.86
2023-04-29T06:04:47.896Z,962.87
2023-04-29T06:05:47.881Z,962.86
2023-04-29T06:06:47.492Z,962.86
2023-04-29T06:07:48.606Z,962.88
2023-04-29T06:08:47.410Z,962.90
2023-04-29T06:09:48.423Z,962.88
2023-04-29T06:10:47.447Z,962.88
2023-04-29T06:11:48.438Z,962.86
2023-04-29T06:12:47.245Z,962.88
2023-04-29T06:13:47.427Z,962.86
2023-04-29T06:14:47.162Z,962.84
2023-04-29T06:15:47.244Z,962.84
2023-04-29T06:16:47.124Z,962.86
2023-04-29T06:17:48.315Z,962.88
2023-04-29T06:18:46.998Z,962.90
2023-04-29T06:19:49.104Z,962.85
2023-04-29T06:20:46.918Z,962.88
2023-04-29T06:21:47.069Z,962.87
2023-04-29T06:22:46.928Z,962.87
2023-04-29T06:23:46.814Z,962.89
2023-04-29T06:24:46.761Z,962.91
2023-04-29T06:25:46.921Z,962.94
2023-04-29T06:26:46.666Z,962.92
2023-04-29T06:27:46.704Z,962.94
2023-04-29T06:28:46.594Z,962.90
2023-04-29T06:29:46.549Z,962.90
2023-04-29T06:30:46.726Z,962.87
2023-04-29T06:31:46.554Z,962.93
2023-04-29T06:32:47.793Z,962.93
2023-04-29T06:33:46.379Z,962.93
2023-04-29T06:34:46.362Z,962.95
2023-04-29T06:35:46.299Z,962.95
2023-04-29T06:36:46.365Z,962.91
2023-04-29T06:37:46.217Z,962.93
2023-04-29T06:38:46.373Z,962.90
2023-04-29T06:39:46.137Z,962.91
2023-04-29T06:40:47.263Z,962.95
2023-04-29T06:41:46.194Z,962.96
2023-04-29T06:42:46.015Z,962.96
2023-04-29T06:43:48.803Z,962.96
2023-04-29T06:44:45.934Z,962.97
2023-04-29T06:45:47.053Z,962.97
2023-04-29T06:46:45.910Z,962.97
2023-04-29T06:47:46.061Z,963.00
2023-04-29T06:48:45.771Z,962.99
2023-04-29T06:49:46.866Z,962.98
2023-04-29T06:50:45.696Z,962.96
2023-04-29T06:51:45.656Z,962.97
2023-04-29T06:52:45.724Z,962.98
2023-04-29T06:53:45.679Z,963.04
2023-04-29T06:54:45.534Z,963.04
2023-04-29T06:55:46.710Z,963.06
2023-04-29T06:56:45.457Z,963.07
2023-04-29T06:57:45.413Z,963.09
2023-04-29T06:58:45.506Z,963.12
2023-04-29T06:59:45.347Z,963.12
2023-04-29T07:00:46.580Z,963.09
2023-04-29T07:01:46.563Z,963.09
2023-04-29T07:02:45.279Z,963.09
2023-04-29T07:03:45.395Z,963.10
2023-04-29T07:04:47.624Z,963.10
2023-04-29T07:05:45.087Z,963.10
2023-04-29T07:06:45.150Z,963.10
2023-04-29T07:07:45.025Z,963.08
2023-04-29T07:08:44.968Z,963.10
2023-04-29T07:09:45.169Z,963.12
2023-04-29T07:10:44.906Z,963.09
2023-04-29T07:11:45.189Z,963.09
2023-04-29T07:12:44.816Z,963.09
2023-04-29T07:14:05.775Z,963.09
2023-04-29T07:14:44.727Z,963.12
2023-04-29T07:15:45.829Z,963.12
2023-04-29T07:16:44.705Z,963.15
2023-04-29T07:17:45.715Z,963.15
2023-04-29T07:18:44.572Z,963.16
2023-04-29T07:19:44.547Z,963.18
2023-04-29T07:20:44.508Z,963.18
2023-04-29T07:21:46.899Z,963.23
2023-04-29T07:22:44.424Z,963.20
2023-04-29T07:23:44.456Z,963.21
2023-04-29T07:24:44.351Z,963.22
2023-04-29T07:25:44.326Z,963.24
2023-04-29T07:26:45.508Z,963.22
2023-04-29T07:27:44.219Z,963.27
2023-04-29T07:28:44.496Z,963.30
2023-04-29T07:29:44.143Z,963.31
2023-04-29T07:30:44.165Z,963.37
2023-04-29T07:31:44.153Z,963.34
2023-04-29T07:32:44.143Z,963.33
2023-04-29T07:33:43.982Z,963.34
2023-04-29T07:34:44.152Z,963.32
2023-04-29T07:35:43.906Z,963.34
2023-04-29T07:36:43.893Z,963.34
2023-04-29T07:37:44.055Z,963.35
2023-04-29T07:38:43.794Z,963.34
2023-04-29T07:39:44.982Z,963.31
2023-04-29T07:40:43.724Z,963.30
2023-04-29T07:41:43.768Z,963.32
2023-04-29T07:42:43.845Z,963.33
2023-04-29T07:43:43.782Z,963.32
2023-04-29T07:44:43.557Z,963.30
2023-04-29T07:45:43.606Z,963.28
2023-04-29T07:46:43.521Z,963.28
2023-04-29T07:47:43.769Z,963.25
2023-04-29T07:48:43.466Z,963.28
2023-04-29T07:49:43.620Z,963.30
2023-04-29T07:50:43.322Z,963.28
2023-04-29T07:51:44.458Z,963.30
2023-04-29T07:52:43.238Z,963.27
2023-04-29T07:53:43.203Z,963.25
2023-04-29T07:54:44.276Z,963.26
2023-04-29T07:55:43.129Z,963.30
2023-04-29T07:56:43.267Z,963.28
2023-04-29T07:57:43.047Z,963.27
2023-04-29T07:58:43.085Z,963.23
2023-04-29T07:59:42.965Z,963.26
2023-04-29T08:00:43.288Z,963.26
2023-04-29T08:01:42.889Z,963.25
2023-04-29T08:02:43.289Z,963.24
2023-04-29T08:03:42.950Z,963.24
2023-04-29T08:04:43.052Z,963.29
2023-04-29T08:05:42.757Z,963.29
2023-04-29T08:06:42.927Z,963.28
2023-04-29T08:07:42.649Z,963.29
2023-04-29T08:08:43.761Z,963.26
2023-04-29T08:09:42.580Z,963.25
2023-04-29T08:10:42.534Z,963.27
2023-04-29T08:11:45.009Z,963.25
2023-04-29T08:12:42.455Z,963.26
2023-04-29T08:13:42.588Z,963.27
2023-04-29T08:14:42.379Z,963.31
2023-04-29T08:15:42.629Z,963.35
2023-04-29T08:16:42.335Z,963.33
2023-04-29T08:17:42.476Z,963.32
2023-04-29T08:18:42.431Z,963.29
2023-04-29T08:19:43.433Z,963.28
2023-04-29T08:20:42.153Z,963.27
2023-04-29T08:21:42.113Z,963.29
2023-04-29T08:22:42.274Z,963.29
2023-04-29T08:24:03.333Z,963.29
2023-04-29T08:24:42.000Z,963.31
2023-04-29T08:25:42.254Z,963.34
2023-04-29T08:26:41.919Z,963.28
2023-04-29T08:27:41.882Z,963.29
2023-04-29T08:28:42.092Z,963.33
2023-04-29T08:29:41.806Z,963.30
2023-04-29T08:30:42.921Z,963.29
2023-04-29T08:31:41.792Z,963.29
2023-04-29T08:32:43.158Z,963.25
2023-04-29T08:33:41.648Z,963.28
2023-04-29T08:34:41.698Z,963.23
2023-04-29T08:35:41.563Z,963.24
2023-04-29T08:36:41.715Z,963.29
2023-04-29T08:37:41.513Z,963.27
2023-04-29T08:38:41.450Z,963.30
2023-04-29T08:39:41.419Z,963.32
2023-04-29T08:40:41.543Z,963.37
2023-04-29T08:41:41.332Z,963.32
2023-04-29T08:42:41.768Z,963.38
2023-04-29T08:43:41.264Z,963.35
2023-04-29T08:44:41.318Z,963.33
2023-04-29T08:45:41.221Z,963.35
2023-04-29T08:46:41.375Z,963.36
2023-04-29T08:47:41.247Z,963.31
2023-04-29T08:48:44.199Z,963.33
2023-04-29T08:49:41.032Z,963.37
2023-04-29T08:50:41.249Z,963.35
2023-04-29T08:51:41.208Z,963.42
2023-04-29T08:52:40.917Z,963.35
2023-04-29T08:53:42.044Z,963.33
2023-04-29T08:54:40.869Z,963.36
2023-04-29T08:55:42.261Z,963.37
2023-04-29T08:56:40.769Z,963.39
2023-04-29T08:57:40.843Z,963.41
2023-04-29T08:58:40.708Z,963.27
2023-04-29T08:59:41.887Z,963.36
2023-04-29T09:00:40.648Z,963.26
2023-04-29T09:01:40.771Z,963.23
2023-04-29T09:03:03.102Z,963.31
2023-04-29T09:03:40.646Z,963.35
2023-04-29T09:04:41.801Z,963.22
2023-04-29T09:05:40.435Z,963.27
2023-04-29T09:06:40.501Z,963.38
2023-04-29T09:07:40.383Z,963.34
2023-04-29T09:08:42.576Z,963.25
2023-04-29T09:09:40.291Z,963.22
2023-04-29T09:10:41.354Z,963.38
2023-04-29T09:11:49.262Z,963.37
2023-04-29T09:12:40.177Z,963.40
2023-04-29T09:13:40.138Z,963.47
2023-04-29T09:14:40.223Z,963.29
2023-04-29T09:15:40.074Z,963.25
2023-04-29T09:16:40.071Z,963.36
2023-04-29T09:17:40.139Z,963.39
2023-04-29T09:18:39.954Z,963.41
2023-04-29T09:19:39.922Z,963.44
2023-04-29T09:20:39.908Z,963.40
2023-04-29T09:21:39.870Z,963.28
2023-04-29T09:22:39.818Z,963.37
2023-04-29T09:23:39.797Z,963.31
2023-04-29T09:24:39.744Z,963.34
2023-04-29T09:25:39.812Z,963.40
2023-04-29T09:26:39.676Z,963.29
2023-04-29T09:27:39.644Z,963.26
2023-04-29T09:28:39.614Z,963.35
2023-04-29T09:29:39.570Z,963.43
2023-04-29T09:30:39.562Z,963.26
2023-04-29T09:31:39.642Z,963.38
2023-04-29T09:32:39.543Z,963.38
2023-04-29T09:33:39.435Z,963.45
2023-04-29T09:34:39.440Z,963.42
2023-04-29T09:35:39.385Z,963.41
2023-04-29T09:36:39.355Z,963.31
2023-04-29T09:37:39.298Z,963.39
2023-04-29T09:38:39.264Z,963.38
2023-04-29T09:39:39.243Z,963.39
2023-04-29T09:40:56.722Z,963.41
2023-04-29T09:41:39.160Z,963.39
2023-04-29T09:42:39.125Z,963.38
2023-04-29T09:43:39.099Z,963.40
2023-04-29T09:44:39.053Z,963.35
2023-04-29T09:45:39.025Z,963.42
2023-04-29T09:46:39.101Z,963.43
2023-04-29T09:47:38.997Z,963.43
2023-04-29T09:48:38.961Z,963.36
2023-04-29T09:49:38.945Z,963.30
2023-04-29T09:50:38.852Z,963.32
2023-04-29T09:51:38.832Z,963.24
2023-04-29T09:52:38.807Z,963.30
2023-04-29T09:53:38.793Z,963.30
2023-04-29T09:54:38.734Z,963.28
2023-04-29T09:55:38.696Z,963.26
2023-04-29T09:56:38.660Z,963.28
2023-04-29T09:57:38.633Z,963.29
2023-04-29T09:58:38.606Z,963.33
2023-04-29T09:59:38.584Z,963.31
2023-04-29T10:00:38.530Z,963.31
2023-04-29T10:01:38.564Z,963.31
2023-04-29T10:02:38.549Z,963.25
2023-04-29T10:03:38.867Z,963.28
2023-04-29T10:04:40.088Z,963.26
2023-04-29T10:05:38.363Z,963.35
2023-04-29T10:06:38.340Z,963.33
2023-04-29T10:07:38.312Z,963.31
2023-04-29T10:08:38.277Z,963.29
2023-04-29T10:09:38.268Z,963.27
2023-04-29T10:10:38.207Z,963.20
2023-04-29T10:11:38.179Z,963.16
2023-04-29T10:12:38.149Z,963.16
2023-04-29T10:13:38.557Z,963.13
2023-04-29T10:14:38.093Z,963.09
2023-04-29T10:15:38.062Z,963.09
2023-04-29T10:16:38.946Z,963.10
2023-04-29T10:17:37.995Z,963.09
2023-04-29T10:18:38.151Z,963.13
2023-04-29T10:19:37.961Z,963.16
2023-04-29T10:20:37.932Z,963.11
2023-04-29T10:21:37.867Z,963.16
2023-04-29T10:22:37.854Z,963.18
2023-04-29T10:23:37.819Z,963.17
2023-04-29T10:24:37.809Z,963.14
2023-04-29T10:25:37.746Z,963.13
2023-04-29T10:26:37.751Z,963.13
2023-04-29T10:27:37.688Z,963.12
2023-04-29T10:28:37.656Z,963.10
2023-04-29T10:29:37.672Z,963.14
2023-04-29T10:30:37.605Z,963.13
2023-04-29T10:31:37.582Z,963.16
2023-04-29T10:32:49.914Z,963.16
2023-04-29T10:33:37.598Z,963.02
2023-04-29T10:34:37.477Z,962.96
2023-04-29T10:35:37.476Z,962.95
2023-04-29T10:36:37.421Z,962.91
2023-04-29T10:37:37.415Z,962.92
2023-04-29T10:38:37.393Z,962.89
2023-04-29T10:39:37.342Z,962.85
2023-04-29T10:40:37.302Z,962.85
2023-04-29T10:41:37.268Z,962.90
2023-04-29T10:42:37.240Z,962.90
2023-04-29T10:43:37.245Z,962.89
2023-04-29T10:44:37.176Z,962.88
2023-04-29T10:45:37.147Z,962.85
2023-04-29T10:46:37.133Z,962.83
2023-04-29T10:47:37.108Z,962.82
2023-04-29T10:48:37.045Z,962.82
2023-04-29T10:49:37.040Z,962.85
2023-04-29T10:50:36.977Z,962.85
2023-04-29T10:51:36.965Z,962.85
2023-04-29T10:52:36.914Z,962.93
2023-04-29T10:53:36.882Z,962.93
2023-04-29T10:54:36.847Z,962.96
2023-04-29T10:55:36.856Z,962.92
2023-04-29T10:56:36.815Z,962.93
2023-04-29T10:57:36.743Z,962.96
2023-04-29T10:58:36.738Z,962.90
2023-04-29T10:59:36.698Z,962.89
2023-04-29T11:00:36.638Z,962.89
2023-04-29T11:01:36.624Z,962.87
2023-04-29T11:02:36.647Z,962.88
2023-04-29T11:03:36.684Z,962.88
2023-04-29T11:04:36.534Z,962.87
2023-04-29T11:05:36.529Z,962.86
2023-04-29T11:06:36.431Z,962.80
2023-04-29T11:07:36.416Z,962.82
2023-04-29T11:08:36.351Z,962.81
2023-04-29T11:09:36.333Z,962.78
2023-04-29T11:10:36.288Z,962.76
2023-04-29T11:11:36.255Z,962.77
2023-04-29T11:12:36.232Z,962.74
2023-04-29T11:13:36.179Z,962.75
2023-04-29T11:14:36.131Z,962.76
2023-04-29T11:15:36.096Z,962.73
2023-04-29T11:16:36.071Z,962.72
2023-04-29T11:17:36.373Z,962.72
2023-04-29T11:18:35.982Z,962.73
2023-04-29T11:19:35.981Z,962.75
2023-04-29T11:20:35.961Z,962.70
2023-04-29T11:21:35.870Z,962.72
2023-04-29T11:22:35.888Z,962.77
2023-04-29T11:23:35.801Z,962.77
2023-04-29T11:24:35.770Z,962.77
2023-04-29T11:25:36.911Z,962.80
2023-04-29T11:26:35.687Z,962.78
2023-04-29T11:27:35.713Z,962.72
2023-04-29T11:28:35.606Z,962.75
2023-04-29T11:29:35.564Z,962.73
2023-04-29T11:30:35.564Z,962.73
2023-04-29T11:31:35.599Z,962.72
2023-04-29T11:32:35.552Z,962.73
2023-04-29T11:33:35.448Z,962.72
2023-04-29T11:34:35.382Z,962.72
2023-04-29T11:35:35.347Z,962.75
2023-04-29T11:36:35.336Z,962.70
2023-04-29T11:37:35.271Z,962.74
2023-04-29T11:38:35.242Z,962.73
2023-04-29T11:39:35.186Z,962.74
2023-04-29T11:40:35.153Z,962.77
2023-04-29T11:41:35.117Z,962.74
2023-04-29T11:42:35.103Z,962.70
2023-04-29T11:43:35.074Z,962.70
2023-04-29T11:44:34.999Z,962.69
2023-04-29T11:45:34.987Z,962.71
2023-04-29T11:46:35.016Z,962.72
2023-04-29T11:47:34.895Z,962.77
2023-04-29T11:48:34.847Z,962.73
2023-04-29T11:49:34.845Z,962.74
2023-04-29T11:50:34.775Z,962.71
2023-04-29T11:51:34.747Z,962.74
2023-04-29T11:52:34.710Z,962.72
2023-04-29T11:53:34.663Z,962.73
2023-04-29T11:54:34.631Z,962.70
2023-04-29T11:55:34.641Z,962.67
2023-04-29T11:56:34.555Z,962.68
2023-04-29T11:57:34.513Z,962.61
2023-04-29T11:58:34.480Z,962.64
2023-04-29T11:59:34.446Z,962.61
2023-04-29T12:00:34.403Z,962.59
2023-04-29T12:01:34.394Z,962.60
2023-04-29T12:02:34.410Z,962.60
2023-04-29T12:03:34.428Z,962.62
2023-04-29T12:04:34.480Z,962.67
2023-04-29T12:05:34.264Z,962.69
2023-04-29T12:06:34.188Z,962.69
2023-04-29T12:07:34.155Z,962.76
2023-04-29T12:08:34.138Z,962.75
2023-04-29T12:09:34.082Z,962.72
2023-04-29T12:10:34.049Z,962.76
2023-04-29T12:11:34.009Z,962.74
2023-04-29T12:12:33.976Z,962.77
2023-04-29T12:13:33.949Z,962.79
2023-04-29T12:14:33.945Z,962.71
2023-04-29T12:15:33.881Z,962.73
2023-04-29T12:16:33.968Z,962.72
2023-04-29T12:17:33.831Z,962.68
2023-04-29T12:18:33.782Z,962.70
2023-04-29T12:19:33.750Z,962.74
2023-04-29T12:20:33.741Z,962.71
2023-04-29T12:21:33.703Z,962.72
2023-04-29T12:22:33.660Z,962.74
2023-04-29T12:23:33.624Z,962.69
2023-04-29T12:24:33.599Z,962.69
2023-04-29T12:25:33.567Z,962.67
2023-04-29T12:26:33.563Z,962.72
2023-04-29T12:27:33.506Z,962.72
2023-04-29T12:28:33.483Z,962.71
2023-04-29T12:29:33.446Z,962.69
2023-04-29T12:30:33.418Z,962.71